Hovedside
METAR-TAF:

METAR-TAF

Lufthavner :

Arvidsjaur lufthavn

Arvidsjaur, Sverige

breddegrad: 65-35-25N, lengdegrad: 019-16-55E, høyde over havet: 379 m

Gjeldene værobservasjon

Denne rapporten ble laget for 24 minutter siden, klokken 03:50 UTC
Vind 10 kt fra Nordvest
Temperatur 8°C
Luftfuktighet 87%
Trykk 996 hPa
Sikt 10 km eller mer
lett duskregn

METAR: ESNX 230350Z AUTO 31010KT 9999 -DZ BKN039/// BKN054/// 08/06 Q0996

Tid: 06:14 (04:14 UTC)


TAF: fraværende

Værobservasjoner og værvarsel for over 4000 flyplasser (METAR- og TAF-rapporter).

Tilgjengelige stasjoner er representert av de røde og gule prikkene på kartet.

Hold musepekeren over prikken for å se navnet på stasjonen.

Klikk så for å se værobservasjoner og -varsler.

For å forandre kartet kan du klikke på den grønne knappen med svart kryss for å zoome inn, på den grønne knappen med strek for å zoome ut, eller på de grønne pilene for å se tilstøtende kart.


METAR-TAF: